Time;durP1;ratioP1;P1;durP2;ratioP2;P2;SDS_P1;SDS_P2;PMS_P1;PMS_P2;Temp;Humidity;BMP_temperature;BMP_pressure;BME280_temperature;BME280_humidity;BME280_pressure;Samples;Min_cycle;Max_cycle;Signal;HPM_P1;HPM_P2
2023/09/30 00:01:44;;;;;;;23.10;13.00;;;;;;;14.01;79.41;99700.91;5053308;28;20043;-74
2023/09/30 00:04:10;;;;;;;22.35;12.32;;;;;;;14.00;79.30;99691.16;5017110;28;20044;-72
2023/09/30 00:06:35;;;;;;;19.77;12.18;;;;;;;13.99;79.43;99694.84;5034885;28;20045;-72
2023/09/30 00:09:01;;;;;;;23.52;12.40;;;;;;;13.98;79.09;99695.81;5015924;28;20431;-71
2023/09/30 00:11:27;;;;;;;21.15;12.52;;;;;;;13.95;79.47;99680.00;5008329;28;20043;-76
2023/09/30 00:13:52;;;;;;;20.63;12.35;;;;;;;13.94;79.56;99683.66;5052845;28;20059;-74
2023/09/30 00:16:18;;;;;;;19.30;12.05;;;;;;;13.91;79.76;99693.78;5052682;28;20059;-72
2023/09/30 00:18:44;;;;;;;19.48;12.73;;;;;;;13.89;79.83;99683.19;5052926;28;20071;-70
2023/09/30 00:21:10;;;;;;;17.38;11.95;;;;;;;13.85;79.79;99679.06;5019371;28;20049;-72
2023/09/30 00:23:35;;;;;;;21.40;12.75;;;;;;;13.81;80.13;99697.22;5054494;28;20044;-74
2023/09/30 00:26:01;;;;;;;25.48;13.50;;;;;;;13.80;80.45;99683.97;5019794;28;20048;-72
2023/09/30 00:28:26;;;;;;;18.75;12.05;;;;;;;13.77;80.82;99644.88;5034327;28;20044;-70
2023/09/30 00:30:51;;;;;;;22.02;12.50;;;;;;;13.75;80.26;99678.16;5016593;28;20044;-75
2023/09/30 00:33:17;;;;;;;20.45;12.20;;;;;;;13.73;80.78;99690.81;5016739;28;20856;-70
2023/09/30 00:35:42;;;;;;;24.92;13.20;;;;;;;13.69;81.00;99700.09;5034456;28;20036;-72
2023/09/30 00:38:08;;;;;;;19.50;13.02;;;;;;;13.67;80.66;99681.47;5019224;28;20056;-76
2023/09/30 00:40:35;;;;;;;21.48;13.35;;;;;;;13.64;81.57;99665.66;5054368;28;20400;-71
2023/09/30 00:43:00;;;;;;;31.35;12.98;;;;;;;13.62;81.50;99677.47;5020852;28;20052;-71
2023/09/30 00:45:26;;;;;;;24.45;12.57;;;;;;;13.61;81.35;99681.13;5052942;28;20040;-71
2023/09/30 00:47:51;;;;;;;25.85;13.75;;;;;;;13.60;81.61;99674.06;5038198;28;20044;-72
2023/09/30 00:50:20;;;;;;;18.92;12.05;;;;;;;13.59;82.31;99704.50;5055993;28;20036;-72
2023/09/30 00:52:46;;;;;;;18.75;12.18;;;;;;;13.54;82.11;99632.59;5036959;28;20044;-73
2023/09/30 00:55:12;;;;;;;18.95;12.60;;;;;;;13.56;81.95;99667.25;5037724;28;20044;-76
2023/09/30 00:57:39;;;;;;;25.33;13.18;;;;;;;13.55;81.86;99654.84;5055598;28;20055;-75
2023/09/30 01:00:06;;;;;;;21.60;13.75;;;;;;;13.53;81.85;99668.38;5036330;28;20048;-69
2023/09/30 01:02:31;;;;;;;19.35;12.38;;;;;;;13.49;82.21;99661.56;5054037;28;20054;-73
2023/09/30 01:04:58;;;;;;;18.95;11.88;;;;;;;13.45;82.39;99671.69;5036247;28;20051;-73
2023/09/30 01:07:23;;;;;;;23.88;12.75;;;;;;;13.41;82.76;99670.25;5043097;28;20040;-72
2023/09/30 01:09:50;;;;;;;20.05;12.68;;;;;;;13.38;83.20;99680.34;5052755;28;20054;-71
2023/09/30 01:12:15;;;;;;;22.20;13.00;;;;;;;13.35;83.73;99670.75;5058329;28;20552;-70
2023/09/30 01:14:42;;;;;;;33.08;13.25;;;;;;;13.33;83.49;99671.84;5035349;28;20052;-71
2023/09/30 01:17:13;;;;;;;23.33;12.55;;;;;;;13.30;83.58;99667.63;5035595;28;20043;-72
2023/09/30 01:19:39;;;;;;;22.92;13.68;;;;;;;13.29;83.60;99678.44;5023322;28;20506;-74
2023/09/30 01:22:05;;;;;;;30.63;12.50;;;;;;;13.27;83.55;99667.84;5026309;28;20036;-72
2023/09/30 01:24:41;;;;;;;20.52;12.73;;;;;;;13.29;84.30;99649.00;5042946;28;20407;-77
2023/09/30 01:27:09;;;;;;;20.05;11.65;;;;;;;13.25;83.48;99666.28;5020673;28;20040;-71
2023/09/30 01:29:38;;;;;;;21.95;12.35;;;;;;;13.23;83.63;99666.41;5033214;28;20043;-71
2023/09/30 01:32:08;;;;;;;20.08;12.80;;;;;;;13.18;83.80;99665.94;5034161;28;20048;-72
2023/09/30 01:34:34;;;;;;;23.48;14.32;;;;;;;13.19;84.08;99674.81;5022380;28;20414;-70
2023/09/30 01:36:59;;;;;;;18.33;11.90;;;;;;;13.17;84.09;99666.06;5048637;28;20047;-71
2023/09/30 01:39:24;;;;;;;18.20;11.95;;;;;;;13.14;84.48;99663.59;5029499;28;20052;-72
2023/09/30 01:41:51;;;;;;;24.60;12.05;;;;;;;13.12;83.90;99662.84;5019667;28;20055;-70
2023/09/30 01:44:16;;;;;;;24.92;12.65;;;;;;;13.11;84.29;99699.47;5028797;28;20047;-70
2023/09/30 01:46:41;;;;;;;18.02;12.75;;;;;;;13.10;84.17;99662.97;5030154;28;20040;-70
2023/09/30 01:49:07;;;;;;;21.55;12.43;;;;;;;13.06;84.93;99681.13;5051541;28;20510;-70
2023/09/30 01:51:32;;;;;;;23.58;13.40;;;;;;;13.06;84.71;99681.13;5053195;28;20864;-69
2023/09/30 01:53:58;;;;;;;22.45;13.13;;;;;;;13.04;84.63;99666.16;5021701;28;20498;-70
2023/09/30 01:56:23;;;;;;;24.55;12.93;;;;;;;13.05;85.17;99668.72;5053511;28;20044;-71
2023/09/30 01:58:48;;;;;;;21.30;13.18;;;;;;;13.03;84.46;99680.53;5020799;28;20059;-70
2023/09/30 02:01:13;;;;;;;25.42;15.30;;;;;;;13.02;84.96;99665.44;5037758;28;20402;-70
2023/09/30 02:03:39;;;;;;;23.33;12.52;;;;;;;12.99;84.86;99658.50;5022023;28;20044;-72
2023/09/30 02:06:04;;;;;;;21.88;13.90;;;;;;;12.95;85.14;99680.31;5017673;28;20418;-71
2023/09/30 02:08:30;;;;;;;17.98;12.82;;;;;;;12.95;84.76;99662.44;5052096;28;20055;-72
2023/09/30 02:10:55;;;;;;;23.80;12.60;;;;;;;12.93;85.20;99658.16;5054734;28;20040;-71
2023/09/30 02:13:21;;;;;;;17.60;12.57;;;;;;;12.90;85.29;99659.25;5021193;28;20052;-71
2023/09/30 02:15:46;;;;;;;20.92;13.25;;;;;;;12.87;85.52;99653.28;5020977;28;20040;-70
2023/09/30 02:18:12;;;;;;;17.42;12.10;;;;;;;12.85;86.25;99657.94;5036685;28;20058;-71
2023/09/30 02:20:40;;;;;;;19.67;12.23;;;;;;;12.86;86.06;99662.31;5037468;28;20424;-70
2023/09/30 02:23:12;;;;;;;22.55;11.48;;;;;;;12.86;86.00;99659.66;5015305;28;20044;-71
2023/09/30 02:25:38;;;;;;;20.98;12.88;;;;;;;12.83;85.89;99665.22;4993090;28;20050;-71
2023/09/30 02:28:04;;;;;;;19.38;11.70;;;;;;;12.83;86.09;99658.06;5034429;28;20052;-70
2023/09/30 02:30:30;;;;;;;20.67;12.52;;;;;;;12.84;86.50;99656.25;5022895;28;20059;-70
2023/09/30 02:32:57;;;;;;;17.42;12.88;;;;;;;12.83;85.87;99658.06;5035053;28;20044;-71
2023/09/30 02:35:25;;;;;;;22.40;12.77;;;;;;;12.83;85.92;99670.59;5053554;28;20059;-70
2023/09/30 02:37:51;;;;;;;26.02;13.20;;;;;;;12.81;85.96;99651.13;5016380;28;20048;-70
2023/09/30 02:40:17;;;;;;;26.45;12.75;;;;;;;12.81;86.20;99648.44;5021462;28;20052;-69
2023/09/30 02:42:43;;;;;;;26.05;12.02;;;;;;;12.77;86.27;99668.38;5029184;28;20040;-69
2023/09/30 02:45:11;;;;;;;21.40;12.85;;;;;;;12.83;85.35;99662.56;5051701;28;20075;-69
2023/09/30 02:47:38;;;;;;;22.60;13.45;;;;;;;12.79;85.37;99645.03;5046762;28;20712;-71
2023/09/30 02:50:08;;;;;;;20.08;12.55;;;;;;;12.77;86.12;99642.47;5032010;28;20048;-71
2023/09/30 02:52:33;;;;;;;20.23;11.85;;;;;;;12.72;86.12;99624.16;5020734;28;20131;-70
2023/09/30 02:54:58;;;;;;;21.90;12.00;;;;;;;12.71;86.45;99638.50;5052159;28;20376;-72
2023/09/30 02:57:24;;;;;;;21.20;13.23;;;;;;;12.70;86.56;99668.03;4999132;28;20044;-70
2023/09/30 02:59:51;;;;;;;19.40;12.38;;;;;;;12.69;86.30;99635.09;5023870;28;20388;-71
2023/09/30 03:02:18;;;;;;;21.48;11.82;;;;;;;12.67;86.52;99636.19;5048046;28;20036;-72
2023/09/30 03:04:43;;;;;;;18.30;12.43;;;;;;;12.65;87.27;99628.28;5033713;28;20047;-73
2023/09/30 03:07:09;;;;;;;20.60;12.68;;;;;;;12.63;87.30;99640.09;5037348;28;20533;-67
2023/09/30 03:09:35;;;;;;;21.23;12.55;;;;;;;12.63;87.33;99640.09;5037274;28;20039;-70
2023/09/30 03:12:04;;;;;;;23.67;12.75;;;;;;;12.61;87.32;99634.84;5026618;28;20055;-69
2023/09/30 03:14:30;;;;;;;21.55;12.45;;;;;;;12.60;86.84;99635.81;5014330;28;20045;-70
2023/09/30 03:16:56;;;;;;;18.98;12.63;;;;;;;12.60;86.69;99648.34;5014694;28;20051;-70
2023/09/30 03:19:21;;;;;;;18.02;11.98;;;;;;;12.56;87.42;99633.50;5013378;28;20057;-72
2023/09/30 03:21:47;;;;;;;24.63;13.15;;;;;;;12.54;87.10;99636.31;5016748;28;20043;-71
2023/09/30 03:24:12;;;;;;;25.85;12.52;;;;;;;12.53;88.09;99639.94;5052700;28;20387;-72
2023/09/30 03:26:40;;;;;;;19.85;12.13;;;;;;;12.51;87.91;99657.97;5033060;28;20419;-71
2023/09/30 03:29:05;;;;;;;26.52;12.77;;;;;;;12.52;87.73;99637.41;5027848;28;20052;-72
2023/09/30 03:31:31;;;;;;;24.20;15.70;;;;;;;12.52;87.59;99635.59;5036948;28;20047;-70
2023/09/30 03:33:56;;;;;;;21.98;12.52;;;;;;;12.49;87.61;99649.22;5054454;28;20411;-70
2023/09/30 03:36:24;;;;;;;23.13;13.90;;;;;;;12.50;88.11;99634.88;5034888;28;20047;-70
2023/09/30 03:38:52;;;;;;;18.45;11.88;;;;;;;12.49;88.12;99643.84;5017162;28;20075;-71
2023/09/30 03:41:19;;;;;;;21.50;13.20;;;;;;;12.50;88.00;99645.56;5016866;28;20040;-70
2023/09/30 03:43:44;;;;;;;24.85;12.65;;;;;;;12.50;88.19;99637.53;5034891;28;20041;-71
2023/09/30 03:46:09;;;;;;;26.70;12.40;;;;;;;12.51;87.89;99639.25;5034728;28;20036;-71
2023/09/30 03:48:39;;;;;;;22.20;12.07;;;;;;;12.52;87.77;99658.81;5034902;28;20051;-72
2023/09/30 03:51:14;;;;;;;19.75;12.52;;;;;;;12.56;88.33;99634.34;5016861;28;20047;-70
2023/09/30 03:53:40;;;;;;;18.25;12.15;;;;;;;12.59;88.07;99627.91;5034681;28;20044;-71
2023/09/30 03:56:06;;;;;;;24.42;13.73;;;;;;;12.63;88.22;99619.53;5016267;28;20049;-70
2023/09/30 03:58:32;;;;;;;23.13;14.38;;;;;;;12.68;87.78;99649.44;5033112;28;20072;-71
2023/09/30 04:00:57;;;;;;;20.08;11.13;;;;;;;12.77;87.25;99630.94;5034668;28;20044;-71
2023/09/30 04:03:23;;;;;;;18.25;11.80;;;;;;;12.84;87.12;99624.13;5034422;28;20044;-72
2023/09/30 04:05:50;;;;;;;24.13;12.95;;;;;;;12.89;87.15;99627.25;5016844;28;20052;-71
2023/09/30 04:08:16;;;;;;;20.58;12.98;;;;;;;12.97;86.17;99632.88;5034588;28;20051;-71
2023/09/30 04:10:43;;;;;;;19.33;12.10;;;;;;;13.06;86.38;99634.78;5016821;28;20388;-72
2023/09/30 04:13:08;;;;;;;20.67;12.48;;;;;;;13.16;85.69;99621.53;5019701;28;20048;-72
2023/09/30 04:15:34;;;;;;;18.50;12.52;;;;;;;13.27;85.22;99608.94;5036210;28;20071;-72
2023/09/30 04:18:00;;;;;;;18.67;11.52;;;;;;;13.39;84.67;99618.66;5054631;28;20059;-72
2023/09/30 04:20:26;;;;;;;22.75;12.23;;;;;;;13.51;83.91;99621.28;5054212;28;20750;-71
2023/09/30 04:22:57;;;;;;;21.48;11.82;;;;;;;13.58;82.97;99617.09;5019589;28;20072;-71
2023/09/30 04:25:26;;;;;;;18.48;12.52;;;;;;;13.71;82.95;99628.47;5054114;28;20024;-71
2023/09/30 04:27:52;;;;;;;20.33;11.43;;;;;;;13.82;81.99;99615.03;5053906;28;20048;-71
2023/09/30 04:30:18;;;;;;;18.23;12.32;;;;;;;13.89;81.97;99621.53;5036223;28;20051;-71
2023/09/30 04:32:43;;;;;;;20.38;13.05;;;;;;;14.03;81.79;99639.97;5054316;28;20044;-70
2023/09/30 04:35:09;;;;;;;26.58;13.60;;;;;;;14.12;81.03;99627.59;5038073;28;20051;-70
2023/09/30 04:37:36;;;;;;;17.95;11.38;;;;;;;14.20;80.99;99629.66;5033485;28;20766;-70
2023/09/30 04:40:02;;;;;;;24.98;12.82;;;;;;;14.31;80.60;99632.25;5033285;28;20053;-69
2023/09/30 04:42:28;;;;;;;16.05;11.40;;;;;;;14.40;79.92;99626.97;5038023;28;20055;-70
2023/09/30 04:44:55;;;;;;;28.67;13.23;;;;;;;14.51;79.21;99631.38;5038376;28;20036;-70
2023/09/30 04:47:21;;;;;;;18.13;11.27;;;;;;;14.60;79.07;99654.72;5051409;28;20055;-70
2023/09/30 04:49:46;;;;;;;18.45;11.98;;;;;;;14.78;78.65;99642.38;4986230;28;20052;-69
2023/09/30 04:52:12;;;;;;;22.25;12.73;;;;;;;14.96;77.96;99630.97;5037869;28;20059;-69
2023/09/30 04:54:37;;;;;;;19.63;11.10;;;;;;;15.14;77.14;99627.47;5040361;28;20486;-70
2023/09/30 04:57:02;;;;;;;19.42;12.05;;;;;;;15.29;76.03;99624.38;5057728;28;20056;-71
2023/09/30 04:59:29;;;;;;;21.33;12.23;;;;;;;15.46;75.62;99629.88;5057653;28;20410;-70
2023/09/30 05:01:54;;;;;;;19.58;12.30;;;;;;;15.57;74.44;99629.81;5057614;28;20068;-70
2023/09/30 05:04:20;;;;;;;19.35;12.38;;;;;;;15.72;73.85;99621.28;5056004;28;20415;-70
2023/09/30 05:06:45;;;;;;;17.15;12.50;;;;;;;15.87;73.33;99609.97;5057644;28;20391;-70
2023/09/30 05:09:12;;;;;;;18.70;11.65;;;;;;;16.10;72.51;99621.25;5031197;28;20036;-71
2023/09/30 05:11:37;;;;;;;24.58;11.80;;;;;;;16.32;71.47;99615.50;5019520;28;20040;-72
2023/09/30 05:14:05;;;;;;;19.50;13.23;;;;;;;16.56;70.98;99596.16;5037471;28;20403;-71
2023/09/30 05:16:30;;;;;;;19.88;12.18;;;;;;;16.87;69.22;99610.19;5019682;28;20043;-71
2023/09/30 05:18:55;;;;;;;18.98;12.13;;;;;;;17.15;68.20;99624.50;5019053;28;20060;-71
2023/09/30 05:21:21;;;;;;;19.00;11.90;;;;;;;17.47;66.83;99602.41;5019812;28;20447;-70
2023/09/30 05:23:46;;;;;;;20.60;11.32;;;;;;;17.82;65.56;99603.41;5037552;28;20123;-71
2023/09/30 05:26:11;;;;;;;16.35;11.18;;;;;;;18.09;64.68;99604.09;5038937;28;20044;-72
2023/09/30 05:28:37;;;;;;;20.55;12.13;;;;;;;18.17;63.47;99584.44;5002187;28;20056;-73
2023/09/30 05:31:02;;;;;;;16.73;12.15;;;;;;;18.19;63.35;99605.84;5002718;28;20037;-73
2023/09/30 05:33:28;;;;;;;20.77;12.48;;;;;;;18.30;62.40;99605.56;5018352;28;20040;-71
2023/09/30 05:35:54;;;;;;;20.60;12.05;;;;;;;18.47;62.77;99612.78;5001310;28;20494;-69
2023/09/30 05:38:20;;;;;;;18.35;12.02;;;;;;;18.66;62.14;99601.75;5035023;28;20052;-70
2023/09/30 05:40:45;;;;;;;20.15;12.52;;;;;;;18.73;61.31;99601.97;5036665;28;20045;-70
2023/09/30 05:43:13;;;;;;;19.58;12.02;;;;;;;18.84;61.30;99593.56;5034681;28;20061;-71
2023/09/30 05:45:40;;;;;;;16.50;12.88;;;;;;;19.18;60.70;99586.25;5036697;28;20063;-70
2023/09/30 05:48:06;;;;;;;15.05;11.05;;;;;;;19.71;59.27;99586.81;5018918;28;20554;-70
2023/09/30 05:50:33;;;;;;;19.02;11.95;;;;;;;20.38;57.67;99582.84;5036666;28;20043;-70
2023/09/30 05:52:59;;;;;;;16.92;11.07;;;;;;;21.13;55.13;99590.47;5017377;28;20427;-73
2023/09/30 05:55:25;;;;;;;19.00;10.90;;;;;;;21.71;53.80;99579.94;5018843;28;20041;-75
2023/09/30 05:57:52;;;;;;;23.83;12.65;;;;;;;22.21;52.13;99575.75;5001902;28;20056;-72
2023/09/30 06:00:21;;;;;;;14.75;11.10;;;;;;;22.61;50.49;99581.75;5036302;28;20049;-71
2023/09/30 06:02:48;;;;;;;21.05;11.30;;;;;;;22.95;49.39;99567.59;5035386;28;20067;-72
2023/09/30 06:05:15;;;;;;;16.80;11.70;;;;;;;23.38;49.06;99569.31;5018407;28;20403;-71
2023/09/30 06:07:41;;;;;;;17.65;10.77;;;;;;;23.53;47.62;99555.69;5035645;28;20057;-72
2023/09/30 06:10:06;;;;;;;19.08;13.35;;;;;;;23.50;48.24;99562.38;5034687;28;20055;-71
2023/09/30 06:12:32;;;;;;;22.00;12.50;;;;;;;23.37;47.25;99573.09;5001013;28;20053;-72
2023/09/30 06:14:58;;;;;;;18.17;11.35;;;;;;;23.66;47.31;99554.97;5036400;28;20048;-72
2023/09/30 06:17:23;;;;;;;15.98;11.82;;;;;;;24.25;46.05;99555.47;5034774;28;20058;-73
2023/09/30 06:19:50;;;;;;;21.23;11.88;;;;;;;24.60;44.29;99553.59;5000709;28;20063;-72
2023/09/30 06:22:15;;;;;;;15.95;11.40;;;;;;;25.03;43.86;99551.50;5033941;28;20047;-73
2023/09/30 06:24:41;;;;;;;15.35;10.73;;;;;;;25.81;42.94;99546.41;5025224;28;20055;-73
2023/09/30 06:27:06;;;;;;;21.30;12.82;;;;;;;26.63;41.19;99540.41;5042266;28;20043;-72
2023/09/30 06:29:33;;;;;;;13.32;10.95;;;;;;;27.34;39.11;99554.81;5037240;28;20063;-73
2023/09/30 06:31:58;;;;;;;20.80;11.45;;;;;;;27.97;37.73;99537.53;5056266;28;20046;-73
2023/09/30 06:34:24;;;;;;;19.08;11.95;;;;;;;28.49;37.30;99547.97;5054921;28;20048;-71
2023/09/30 06:36:49;;;;;;;16.27;10.63;;;;;;;28.71;36.63;99528.31;5057072;28;20040;-72
2023/09/30 06:39:15;;;;;;;17.58;11.18;;;;;;;29.04;35.69;99528.75;5069632;28;20548;-71
2023/09/30 06:41:40;;;;;;;13.32;9.82;;;;;;;29.40;34.69;99527.84;5023507;28;20154;-70
2023/09/30 06:44:08;;;;;;;17.58;11.38;;;;;;;29.59;34.26;99521.19;5023445;28;20398;-72
2023/09/30 06:46:34;;;;;;;17.60;11.05;;;;;;;29.83;33.95;99543.22;5040161;28;20036;-73
2023/09/30 06:48:59;;;;;;;17.35;11.60;;;;;;;29.69;33.85;99536.25;5039137;28;20391;-72
2023/09/30 06:51:26;;;;;;;14.05;9.90;;;;;;;29.75;33.73;99519.69;5021147;28;20047;-72
2023/09/30 06:53:51;;;;;;;12.77;10.02;;;;;;;29.61;33.67;99529.22;5037822;28;20059;-73
2023/09/30 06:56:16;;;;;;;17.83;11.10;;;;;;;29.55;33.80;99514.53;5020261;28;20515;-72
2023/09/30 06:58:42;;;;;;;15.50;10.15;;;;;;;29.93;33.64;99530.56;5021363;28;20051;-73
2023/09/30 07:01:07;;;;;;;13.63;10.20;;;;;;;30.04;33.15;99534.44;5054388;28;20044;-74
2023/09/30 07:03:33;;;;;;;14.93;9.68;;;;;;;30.39;32.41;99522.56;5055453;28;20553;-74
2023/09/30 07:06:00;;;;;;;13.07;10.43;;;;;;;30.86;31.95;99517.84;5036839;28;20055;-73
2023/09/30 07:08:29;;;;;;;15.68;10.35;;;;;;;31.12;31.32;99520.06;5043815;28;20048;-72
2023/09/30 07:10:56;;;;;;;13.35;10.45;;;;;;;31.25;31.10;99510.66;5036052;28;20506;-73
2023/09/30 07:13:21;;;;;;;16.23;11.27;;;;;;;31.59;30.43;99514.31;5055523;28;20051;-75
2023/09/30 07:15:47;;;;;;;14.25;9.73;;;;;;;32.26;29.98;99500.53;5053540;28;20044;-73
2023/09/30 07:18:12;;;;;;;19.27;10.85;;;;;;;32.16;29.75;99503.13;5055412;28;20047;-73
2023/09/30 07:20:37;;;;;;;16.25;10.15;;;;;;;32.43;29.20;99510.44;5037621;28;20043;-73
2023/09/30 07:23:03;;;;;;;13.98;10.95;;;;;;;32.82;28.79;99502.13;5037171;28;20410;-75
2023/09/30 07:25:31;;;;;;;15.40;10.75;;;;;;;32.84;28.45;99493.59;5055104;28;20490;-75
2023/09/30 07:27:57;;;;;;;13.30;10.48;;;;;;;33.25;27.96;99497.66;5055267;28;20044;-76
2023/09/30 07:30:23;;;;;;;13.55;10.23;;;;;;;33.41;27.61;99505.00;5055118;28;20440;-76
2023/09/30 07:32:48;;;;;;;14.55;9.73;;;;;;;33.84;27.30;99504.88;5055325;28;20055;-75
2023/09/30 07:35:15;;;;;;;14.48;10.40;;;;;;;34.15;26.83;99494.84;5055007;28;20036;-76
2023/09/30 07:37:41;;;;;;;15.18;10.18;;;;;;;34.73;26.23;99492.97;5019953;28;20051;-75
2023/09/30 07:40:07;;;;;;;15.77;9.50;;;;;;;35.60;25.22;99494.03;5051615;28;20040;-72
2023/09/30 07:42:33;;;;;;;17.08;10.18;;;;;;;35.97;24.54;99488.22;5017500;28;20052;-76
2023/09/30 07:44:58;;;;;;;12.57;9.68;;;;;;;36.46;24.03;99480.06;5000373;28;20060;-78
2023/09/30 07:47:24;;;;;;;14.75;10.32;;;;;;;36.42;23.89;99489.25;5000368;28;20059;-76
2023/09/30 07:49:50;;;;;;;16.10;9.82;;;;;;;36.05;23.84;99489.59;5016315;28;20040;-74
2023/09/30 07:52:15;;;;;;;14.75;10.52;;;;;;;36.16;24.19;99480.97;5017034;28;20048;-75
2023/09/30 07:54:40;;;;;;;21.17;10.38;;;;;;;36.13;24.11;99487.06;5016677;28;20044;-74
2023/09/30 07:57:06;;;;;;;13.63;10.13;;;;;;;36.33;23.98;99487.06;5034933;28;20056;-75
2023/09/30 07:59:33;;;;;;;16.10;10.77;;;;;;;36.41;23.60;99480.09;5035099;28;20044;-73
2023/09/30 08:01:58;;;;;;;13.23;9.32;;;;;;;36.67;23.80;99475.28;5000032;28;20858;-74
2023/09/30 08:04:23;;;;;;;11.52;9.13;;;;;;;37.37;22.97;99465.72;5034374;28;20506;-73
2023/09/30 08:06:50;;;;;;;12.27;9.52;;;;;;;37.81;22.21;99464.03;5034701;28;20036;-73
2023/09/30 08:09:18;;;;;;;10.27;8.68;;;;;;;37.97;21.94;99471.09;5035488;28;20051;-77
2023/09/30 08:11:43;;;;;;;12.55;9.40;;;;;;;38.15;21.87;99470.38;5032410;28;20075;-75
2023/09/30 08:14:09;;;;;;;12.82;9.10;;;;;;;39.05;21.20;99476.00;5034605;28;20044;-76
2023/09/30 08:16:37;;;;;;;11.15;9.57;;;;;;;39.73;20.32;99457.91;5036240;28;20045;-75
2023/09/30 08:19:03;;;;;;;16.65;11.27;;;;;;;40.72;19.54;99449.06;5037291;28;20052;-78
2023/09/30 08:21:29;;;;;;;13.10;9.30;;;;;;;40.95;19.10;99456.38;5038274;28;20055;-76
2023/09/30 08:23:54;;;;;;;18.58;10.25;;;;;;;41.29;18.94;99451.13;5037965;28;20056;-77
2023/09/30 08:26:20;;;;;;;14.32;10.45;;;;;;;41.39;18.59;99440.81;5052786;28;20049;-76
2023/09/30 08:28:45;;;;;;;11.65;10.05;;;;;;;41.69;18.24;99443.69;5059453;28;20044;-74
2023/09/30 08:31:10;;;;;;;16.30;9.73;;;;;;;41.91;17.99;99428.00;5058362;28;20044;-76
2023/09/30 08:33:43;;;;;;;12.30;9.70;;;;;;;41.88;18.04;99429.44;5058901;28;20051;-74
2023/09/30 08:36:10;;;;;;;12.85;10.60;;;;;;;42.01;17.81;99424.94;5057977;28;20437;-74
2023/09/30 08:38:37;;;;;;;17.38;9.68;;;;;;;42.44;17.57;99436.38;5058237;28;20067;-74
2023/09/30 08:41:03;;;;;;;12.98;11.30;;;;;;;42.79;17.03;99430.84;5026753;28;20422;-73
2023/09/30 08:43:30;;;;;;;14.73;10.55;;;;;;;43.23;16.53;99438.97;5058573;28;20054;-73
2023/09/30 08:45:56;;;;;;;15.80;10.80;;;;;;;43.41;16.42;99435.03;5040098;28;20059;-74
2023/09/30 08:48:23;;;;;;;13.52;10.45;;;;;;;43.44;16.21;99425.94;5057683;28;20047;-73
2023/09/30 08:50:49;;;;;;;16.35;10.10;;;;;;;43.40;16.26;99441.78;5039371;28;20051;-73
2023/09/30 08:53:16;;;;;;;13.38;10.02;;;;;;;41.12;17.16;99422.13;5057389;28;20047;-72
2023/09/30 08:55:44;;;;;;;11.13;10.02;;;;;;;40.88;17.89;99428.81;5057993;28;20071;-73
2023/09/30 08:58:12;;;;;;;12.18;9.93;;;;;;;41.45;17.76;99431.13;5058118;28;20071;-74
2023/09/30 09:00:39;;;;;;;16.23;9.98;;;;;;;41.54;17.46;99412.47;5060864;28;20043;-75
2023/09/30 09:03:06;;;;;;;18.95;10.38;;;;;;;41.08;17.60;99410.75;5044411;28;20418;-76
2023/09/30 09:05:31;;;;;;;11.93;10.68;;;;;;;41.39;17.42;99407.25;5057736;28;20036;-74
2023/09/30 09:07:56;;;;;;;14.85;10.63;;;;;;;41.50;16.96;99409.47;5057811;28;20047;-79
2023/09/30 09:10:21;;;;;;;12.25;10.65;;;;;;;40.77;17.45;99421.00;5039604;28;20048;-78
2023/09/30 09:12:55;;;;;;;17.05;10.32;;;;;;;40.83;17.41;99414.16;5057922;28;20433;-76
2023/09/30 09:15:24;;;;;;;14.93;9.85;;;;;;;40.37;18.04;99415.13;5039441;28;20047;-76
2023/09/30 09:17:50;;;;;;;14.65;10.23;;;;;;;39.95;18.20;99387.47;5022155;28;20052;-74
2023/09/30 09:20:21;;;;;;;16.65;10.75;;;;;;;39.36;18.59;99395.47;5057430;28;20051;-75
2023/09/30 09:22:53;;;;;;;16.52;10.40;;;;;;;38.72;18.97;99399.75;5024262;28;20499;-74
2023/09/30 09:25:21;;;;;;;15.57;10.07;;;;;;;38.80;18.90;99395.50;5000242;28;20040;-77
2023/09/30 09:27:46;;;;;;;14.35;9.43;;;;;;;38.58;18.81;99400.81;4999710;28;20144;-77
2023/09/30 09:30:22;;;;;;;17.67;10.30;;;;;;;38.38;18.95;99408.25;5000192;28;20041;-75
2023/09/30 09:33:07;;;;;;;17.33;10.23;;;;;;;37.76;19.43;99390.59;5017602;28;20512;-76
2023/09/30 09:35:35;;;;;;;11.95;9.88;;;;;;;36.66;20.77;99385.56;4999142;28;20056;-73
2023/09/30 09:38:00;;;;;;;16.45;11.05;;;;;;;36.18;20.96;99392.69;4999452;28;20049;-72
2023/09/30 09:40:28;;;;;;;11.82;9.88;;;;;;;35.55;20.82;99400.59;5016994;28;20059;-73
2023/09/30 09:42:55;;;;;;;11.60;9.07;;;;;;;34.61;21.96;99400.97;5015810;28;20523;-73
2023/09/30 09:45:25;;;;;;;13.73;9.48;;;;;;;33.80;22.56;99392.25;4999123;28;20041;-73
2023/09/30 09:47:51;;;;;;;14.68;9.85;;;;;;;33.72;23.03;99389.97;5017060;28;20044;-74
2023/09/30 09:50:19;;;;;;;16.17;9.98;;;;;;;34.37;22.30;99380.41;5018094;28;20488;-74
2023/09/30 09:52:49;;;;;;;14.95;10.77;;;;;;;35.69;21.39;99389.72;5037406;28;20041;-75
2023/09/30 09:55:19;;;;;;;13.35;10.02;;;;;;;36.34;20.42;99377.69;5037259;28;20051;-75
2023/09/30 09:57:45;;;;;;;11.68;9.00;;;;;;;35.96;20.90;99381.94;5015810;28;20423;-75
2023/09/30 10:00:19;;;;;;;12.20;10.05;;;;;;;35.67;21.13;99378.91;5014683;28;20511;-72
2023/09/30 10:02:48;;;;;;;15.25;9.90;;;;;;;35.61;21.32;99377.28;5017651;28;20127;-75
2023/09/30 10:05:15;;;;;;;15.15;9.85;;;;;;;35.71;21.24;99373.66;5028343;28;20052;-76
2023/09/30 10:07:47;;;;;;;12.55;9.70;;;;;;;34.87;21.57;99374.22;5019684;28;20501;-75
2023/09/30 10:10:18;;;;;;;12.20;10.23;;;;;;;33.52;22.99;99380.44;5035856;28;20044;-75
2023/09/30 10:12:44;;;;;;;16.08;9.50;;;;;;;32.06;24.41;99366.72;5004534;28;20044;-76
2023/09/30 10:15:25;;;;;;;14.77;9.98;;;;;;;31.14;25.71;99363.69;5029001;28;20496;-75
2023/09/30 10:18:06;;;;;;;13.18;9.00;;;;;;;30.39;27.61;99388.63;5035626;28;20036;-75
2023/09/30 10:20:33;;;;;;;13.82;9.82;;;;;;;29.41;28.16;99374.88;5031482;28;20051;-76
2023/09/30 10:23:21;;;;;;;16.85;10.30;;;;;;;28.79;28.76;99371.63;5008154;28;20037;-74
2023/09/30 10:25:49;;;;;;;17.42;9.43;;;;;;;28.33;29.33;99381.31;5018646;28;20610;-75
2023/09/30 10:28:46;;;;;;;13.95;9.65;;;;;;;27.88;30.78;99369.00;5027462;28;20056;-74
2023/09/30 10:31:21;;;;;;;12.52;10.07;;;;;;;27.25;31.31;99375.47;5029846;28;20040;-71
2023/09/30 10:34:02;;;;;;;14.95;9.98;;;;;;;27.21;31.51;99370.66;5036206;28;20036;-75
2023/09/30 10:36:32;;;;;;;15.23;9.85;;;;;;;26.91;31.77;99363.09;5030082;28;20040;-72
2023/09/30 10:38:58;;;;;;;17.58;9.80;;;;;;;26.76;32.33;99368.03;5022756;28;20037;-72
2023/09/30 10:41:39;;;;;;;13.02;9.65;;;;;;;26.62;32.46;99353.63;5039648;28;20053;-74
2023/09/30 10:44:26;;;;;;;19.10;10.70;;;;;;;26.26;33.37;99356.94;5022420;28;20040;-73
2023/09/30 10:46:53;;;;;;;15.70;10.15;;;;;;;25.87;34.14;99365.28;5035787;28;20063;-73
2023/09/30 10:49:24;;;;;;;13.55;9.50;;;;;;;25.64;34.60;99355.69;5017141;28;20400;-74
2023/09/30 10:51:58;;;;;;;16.52;8.80;;;;;;;25.36;34.40;99360.53;4998735;28;20049;-76
2023/09/30 10:54:28;;;;;;;17.93;10.13;;;;;;;25.32;34.25;99356.53;5049987;28;20044;-73
2023/09/30 10:56:54;;;;;;;12.98;10.20;;;;;;;24.86;34.78;99368.25;5049105;28;20044;-73
2023/09/30 10:59:24;;;;;;;20.45;11.00;;;;;;;24.64;36.07;99347.69;5034072;28;20037;-71
2023/09/30 11:01:50;;;;;;;15.73;9.88;;;;;;;24.60;35.41;99347.25;5043130;28;20051;-74
2023/09/30 11:04:15;;;;;;;13.63;9.85;;;;;;;24.53;36.27;99346.41;5038349;28;20055;-72
2023/09/30 11:06:41;;;;;;;15.73;10.07;;;;;;;24.45;36.57;99316.63;5035763;28;20045;-72
2023/09/30 11:09:12;;;;;;;17.65;10.50;;;;;;;24.28;36.27;99341.72;5045890;28;20380;-75
2023/09/30 11:11:52;;;;;;;15.98;8.70;;;;;;;24.15;36.88;99364.28;5015558;28;20127;-72
2023/09/30 11:14:29;;;;;;;15.02;9.18;;;;;;;24.08;36.71;99330.72;5039812;28;20041;-74
2023/09/30 11:16:58;;;;;;;15.27;9.35;;;;;;;23.89;37.28;99332.34;4994883;28;20415;-74
2023/09/30 11:19:23;;;;;;;12.05;9.93;;;;;;;23.84;37.64;99332.94;5033812;28;20049;-74